Time;durP1;ratioP1;P1;durP2;ratioP2;P2;SDS_P1;SDS_P2;PMS_P1;PMS_P2;Temp;Humidity;BMP_temperature;BMP_pressure;BME280_temperature;BME280_humidity;BME280_pressure;Samples;Min_cycle;Max_cycle;Signal;HPM_P1;HPM_P2
2022/04/25 00:00:06;;;;;;;1.80;1.30;;;14.00;48.90;;;;;;4895677;29;20036;-80
2022/04/25 00:02:32;;;;;;;3.42;1.42;;;14.00;49.20;;;;;;4905704;29;20036;-82
2022/04/25 00:04:58;;;;;;;2.20;1.40;;;13.90;49.20;;;;;;4904837;29;20040;-81
2022/04/25 00:07:23;;;;;;;2.38;1.33;;;13.80;49.20;;;;;;4893084;29;20036;-81
2022/04/25 00:09:49;;;;;;;3.67;1.50;;;13.80;49.30;;;;;;4872750;29;20052;-81
2022/04/25 00:12:15;;;;;;;3.58;1.38;;;13.70;49.30;;;;;;4901722;29;20508;-81
2022/04/25 00:14:41;;;;;;;3.05;1.45;;;13.70;49.40;;;;;;4893633;29;20020;-81
2022/04/25 00:17:06;;;;;;;1.83;1.27;;;13.60;49.50;;;;;;4901721;29;20096;-80
2022/04/25 00:19:32;;;;;;;2.20;1.30;;;13.50;49.60;;;;;;4898658;29;20214;-81
2022/04/25 00:21:57;;;;;;;2.20;1.33;;;13.50;49.70;;;;;;4902460;29;20027;-81
2022/04/25 00:24:23;;;;;;;1.88;1.25;;;13.50;49.80;;;;;;4880939;29;20943;-81
2022/04/25 00:26:49;;;;;;;2.37;1.20;;;13.40;49.90;;;;;;4875144;29;20198;-82
2022/04/25 00:29:15;;;;;;;1.80;1.17;;;13.40;50.30;;;;;;4902608;29;20044;-82
2022/04/25 00:31:41;;;;;;;2.58;1.45;;;13.30;50.00;;;;;;4891571;29;20047;-81
2022/04/25 00:34:07;;;;;;;1.60;1.20;;;13.30;50.20;;;;;;4906373;29;20043;-81
2022/04/25 00:36:32;;;;;;;2.58;1.40;;;13.30;50.30;;;;;;4903339;29;20032;-82
2022/04/25 00:38:58;;;;;;;2.07;1.30;;;13.20;50.30;;;;;;4882688;29;20250;-82
2022/04/25 00:41:24;;;;;;;2.15;1.30;;;13.20;50.40;;;;;;4883760;29;20040;-81
2022/04/25 00:43:57;;;;;;;2.13;1.45;;;13.10;50.40;;;;;;4890922;29;20048;-81
2022/04/25 00:46:26;;;;;;;2.33;1.30;;;13.10;51.10;;;;;;4896452;29;20035;-82
2022/04/25 00:48:53;;;;;;;2.58;1.25;;;13.10;51.10;;;;;;4896022;29;20278;-80
2022/04/25 00:51:19;;;;;;;2.75;1.33;;;13.00;50.80;;;;;;4906177;29;20130;-82
2022/04/25 00:53:45;;;;;;;2.13;1.38;;;13.00;50.80;;;;;;4887275;29;20063;-81
2022/04/25 00:56:14;;;;;;;2.33;1.40;;;12.90;51.50;;;;;;4916685;28;20268;-82
2022/04/25 00:58:40;;;;;;;3.77;1.40;;;12.90;51.20;;;;;;4900079;29;20070;-81
2022/04/25 01:01:06;;;;;;;2.38;1.33;;;12.80;51.00;;;;;;4897919;29;20071;-81
2022/04/25 01:03:31;;;;;;;2.60;1.45;;;12.80;51.10;;;;;;4890588;29;20040;-81
2022/04/25 01:05:57;;;;;;;2.50;1.40;;;12.70;51.20;;;;;;4889590;29;20498;-82
2022/04/25 01:08:22;;;;;;;2.77;1.43;;;12.70;51.40;;;;;;4902922;29;20067;-80
2022/04/25 01:10:48;;;;;;;2.40;1.40;;;12.70;51.40;;;;;;4891436;29;20620;-81
2022/04/25 01:13:14;;;;;;;2.75;1.40;;;12.60;51.50;;;;;;4886742;29;20111;-81
2022/04/25 01:15:40;;;;;;;1.70;1.40;;;12.50;51.60;;;;;;4882912;29;20029;-80
2022/04/25 01:18:06;;;;;;;2.08;1.40;;;12.50;51.70;;;;;;4903054;29;20396;-82
2022/04/25 01:20:32;;;;;;;3.30;1.60;;;12.40;51.80;;;;;;4895959;29;20427;-81
2022/04/25 01:28:35;;;;;;;2.83;1.50;;;12.30;52.00;;;;;;4885454;29;20335;-81
2022/04/25 01:31:00;;;;;;;2.70;1.40;;;12.30;52.20;;;;;;4902164;29;20036;-81
2022/04/25 01:33:26;;;;;;;1.98;1.33;;;12.20;52.10;;;;;;4894951;29;20044;-81
2022/04/25 01:35:52;;;;;;;2.30;1.30;;;12.20;52.30;;;;;;4909748;29;20604;-81
2022/04/25 01:38:17;;;;;;;1.85;1.33;;;12.10;52.30;;;;;;4891250;29;20501;-81
2022/04/25 01:40:43;;;;;;;2.70;1.40;;;12.10;52.50;;;;;;4888795;29;20187;-81
2022/04/25 01:43:09;;;;;;;2.30;1.50;;;12.00;52.60;;;;;;4885892;29;20052;-81
2022/04/25 01:45:34;;;;;;;2.87;1.50;;;12.00;52.60;;;;;;4902138;29;20075;-81
2022/04/25 01:48:00;;;;;;;2.28;1.50;;;12.00;52.70;;;;;;4892031;29;20050;-81
2022/04/25 01:50:26;;;;;;;3.00;1.50;;;11.90;52.70;;;;;;4900321;29;20036;-81
2022/04/25 01:52:51;;;;;;;3.30;1.70;;;11.90;52.90;;;;;;4891995;29;20413;-80
2022/04/25 01:55:17;;;;;;;3.00;1.40;;;11.90;52.90;;;;;;4903296;29;20028;-81
2022/04/25 01:57:43;;;;;;;3.63;1.70;;;11.90;53.10;;;;;;4866916;29;20275;-80
2022/04/25 02:00:09;;;;;;;2.80;1.37;;;11.80;53.10;;;;;;4902223;29;20024;-81
2022/04/25 02:02:36;;;;;;;2.20;1.40;;;11.80;53.20;;;;;;4894435;29;20067;-80
2022/04/25 02:05:03;;;;;;;2.40;1.45;;;11.70;53.30;;;;;;4906728;29;20036;-81
2022/04/25 02:07:29;;;;;;;3.28;1.52;;;11.70;53.50;;;;;;4891688;29;20473;-81
2022/04/25 02:09:55;;;;;;;3.10;1.50;;;11.70;53.60;;;;;;4899717;29;20162;-81
2022/04/25 02:12:21;;;;;;;2.97;1.45;;;11.60;53.70;;;;;;4903948;29;20473;-81
2022/04/25 02:14:47;;;;;;;3.90;1.48;;;11.60;53.70;;;;;;4864033;29;20397;-81
2022/04/25 02:17:16;;;;;;;2.23;1.50;;;11.50;53.80;;;;;;4905478;29;20063;-81
2022/04/25 02:19:44;;;;;;;3.45;1.60;;;11.50;53.90;;;;;;4924885;29;20551;-81
2022/04/25 02:22:10;;;;;;;2.65;1.52;;;11.50;54.00;;;;;;4904295;29;20032;-82
2022/04/25 02:24:36;;;;;;;2.60;1.50;;;11.40;54.00;;;;;;4904207;29;20040;-81
2022/04/25 02:27:03;;;;;;;2.20;1.60;;;11.40;54.20;;;;;;4903519;29;20032;-81
2022/04/25 02:29:33;;;;;;;2.55;1.65;;;11.40;54.20;;;;;;4885750;29;20056;-80
2022/04/25 02:32:02;;;;;;;2.53;1.70;;;11.40;54.40;;;;;;4899864;29;20512;-81
2022/04/25 02:34:29;;;;;;;2.50;1.48;;;11.30;54.80;;;;;;4892171;29;20367;-81
2022/04/25 02:36:56;;;;;;;2.93;1.70;;;11.30;55.10;;;;;;4904976;29;20025;-81
2022/04/25 02:39:25;;;;;;;2.78;1.52;;;11.30;54.60;;;;;;4930969;29;20127;-81
2022/04/25 02:41:51;;;;;;;3.17;1.50;;;11.30;55.00;;;;;;4897330;29;20239;-81
2022/04/25 02:44:17;;;;;;;3.25;1.70;;;11.20;54.60;;;;;;4892975;29;20044;-81
2022/04/25 02:46:43;;;;;;;2.35;1.70;;;11.20;54.70;;;;;;4884003;29;20249;-81
2022/04/25 02:49:08;;;;;;;2.83;1.70;;;11.20;55.50;;;;;;4905697;29;20039;-81
2022/04/25 02:51:34;;;;;;;2.42;1.65;;;11.20;54.90;;;;;;4894673;29;20040;-82
2022/04/25 02:54:00;;;;;;;2.73;1.60;;;11.10;55.00;;;;;;4898510;29;20150;-81
2022/04/25 02:56:25;;;;;;;3.40;2.00;;;11.10;55.10;;;;;;4896811;29;20116;-81
2022/04/25 02:58:51;;;;;;;2.57;1.60;;;11.10;55.10;;;;;;4902969;29;20044;-81
2022/04/25 03:01:17;;;;;;;3.40;1.70;;;11.00;55.20;;;;;;4887551;29;20409;-82
2022/04/25 03:03:42;;;;;;;2.73;1.60;;;11.00;55.40;;;;;;4898905;29;20099;-81
2022/04/25 03:06:10;;;;;;;3.05;1.80;;;11.00;55.40;;;;;;4894251;29;20047;-82
2022/04/25 03:08:37;;;;;;;3.47;1.77;;;11.00;55.70;;;;;;4898097;29;20040;-81
2022/04/25 03:11:04;;;;;;;2.72;1.73;;;11.00;55.70;;;;;;4904128;29;20051;-81
2022/04/25 03:13:30;;;;;;;3.75;1.80;;;11.00;55.70;;;;;;4903170;29;20416;-81
2022/04/25 03:15:56;;;;;;;4.72;1.90;;;10.90;55.70;;;;;;4887596;29;20643;-81
2022/04/25 03:18:22;;;;;;;4.33;1.60;;;10.90;55.70;;;;;;4904024;29;20036;-81
2022/04/25 03:20:50;;;;;;;4.38;1.80;;;10.80;55.70;;;;;;4896514;29;20231;-81
2022/04/25 03:23:20;;;;;;;2.92;1.63;;;10.90;55.80;;;;;;4889807;29;20807;-81
2022/04/25 03:25:46;;;;;;;3.03;1.60;;;10.80;56.30;;;;;;4899632;29;20028;-81
2022/04/25 03:28:13;;;;;;;2.60;1.80;;;10.80;55.90;;;;;;4901248;29;20328;-81
2022/04/25 03:30:39;;;;;;;3.27;1.97;;;10.80;55.90;;;;;;4896999;29;20386;-81
2022/04/25 03:33:05;;;;;;;3.03;2.13;;;10.70;55.90;;;;;;4886043;29;20554;-81
2022/04/25 03:35:32;;;;;;;3.20;1.95;;;10.70;56.20;;;;;;4894635;29;20035;-81
2022/04/25 03:37:58;;;;;;;4.00;1.90;;;10.70;56.20;;;;;;4894643;29;20040;-81
2022/04/25 03:40:24;;;;;;;2.23;1.57;;;10.60;56.10;;;;;;4897839;29;20259;-81
2022/04/25 03:42:50;;;;;;;3.88;2.03;;;10.60;56.20;;;;;;4904680;29;20189;-81
2022/04/25 03:45:18;;;;;;;2.33;1.70;;;10.60;56.30;;;;;;4889114;29;20080;-81
2022/04/25 03:47:45;;;;;;;2.80;1.80;;;10.60;56.40;;;;;;4882353;29;20032;-81
2022/04/25 03:50:12;;;;;;;3.37;2.00;;;10.50;56.40;;;;;;4891281;29;20110;-80
2022/04/25 03:52:40;;;;;;;3.10;1.88;;;10.50;56.40;;;;;;4897068;29;20024;-81
2022/04/25 03:57:51;;;;;;;3.20;1.70;;;10.40;56.40;;;;;;4905732;29;20564;-80
2022/04/25 04:00:17;;;;;;;3.03;2.00;;;10.40;56.30;;;;;;4891549;29;20112;-81
2022/04/25 04:02:43;;;;;;;3.13;2.00;;;10.40;56.50;;;;;;4886175;29;20650;-80
2022/04/25 04:05:10;;;;;;;3.30;1.80;;;10.40;56.50;;;;;;4900782;29;20064;-81
2022/04/25 04:07:35;;;;;;;2.80;1.90;;;10.30;56.60;;;;;;4895596;29;20511;-81
2022/04/25 04:10:01;;;;;;;3.07;1.80;;;10.30;56.60;;;;;;4902807;29;20042;-81
2022/04/25 04:12:33;;;;;;;3.40;1.92;;;10.20;56.60;;;;;;4891775;29;20357;-81
2022/04/25 04:15:02;;;;;;;4.20;1.87;;;10.20;56.80;;;;;;4902667;29;20037;-81
2022/04/25 04:17:28;;;;;;;3.78;1.98;;;10.20;56.60;;;;;;4902528;29;20059;-82
2022/04/25 04:19:54;;;;;;;3.15;1.80;;;10.10;56.60;;;;;;4883789;29;20100;-80
2022/04/25 04:22:25;;;;;;;4.53;2.00;;;10.10;56.70;;;;;;4903203;29;20536;-80
2022/04/25 04:24:51;;;;;;;3.80;2.10;;;10.10;57.20;;;;;;4903862;29;20067;-81
2022/04/25 04:27:17;;;;;;;3.37;2.00;;;10.00;56.70;;;;;;4890177;29;20401;-81
2022/04/25 04:29:44;;;;;;;3.75;2.10;;;10.00;56.80;;;;;;4896262;29;20177;-81
2022/04/25 04:32:10;;;;;;;4.20;1.98;;;10.00;57.00;;;;;;4892915;29;20533;-80
2022/04/25 04:34:36;;;;;;;4.53;2.00;;;9.90;57.10;;;;;;4884546;29;20043;-81
2022/04/25 04:37:06;;;;;;;3.08;2.10;;;10.00;57.30;;;;;;4890673;29;20532;-81
2022/04/25 04:39:32;;;;;;;3.87;2.10;;;9.90;57.70;;;;;;4887903;29;20036;-81
2022/04/25 04:41:58;;;;;;;3.38;1.95;;;9.90;57.50;;;;;;4895982;29;20048;-80
2022/04/25 04:44:23;;;;;;;3.37;2.20;;;9.80;57.60;;;;;;4905430;29;20039;-81
2022/04/25 04:46:49;;;;;;;3.60;2.05;;;9.90;57.70;;;;;;4898278;29;20247;-81
2022/04/25 04:49:16;;;;;;;2.60;1.80;;;9.80;57.80;;;;;;4879546;29;20046;-80
2022/04/25 04:51:42;;;;;;;4.20;2.58;;;9.90;58.00;;;;;;4902760;29;20033;-80
2022/04/25 04:54:08;;;;;;;4.07;2.40;;;9.90;58.10;;;;;;4882818;29;20032;-80
2022/04/25 04:56:34;;;;;;;3.25;2.28;;;9.90;58.30;;;;;;4904432;29;20390;-81
2022/04/25 04:59:00;;;;;;;4.63;2.45;;;9.90;58.20;;;;;;4898027;29;20083;-81
2022/04/25 05:01:26;;;;;;;3.47;2.00;;;9.90;58.30;;;;;;4882917;29;20505;-81
2022/04/25 05:03:58;;;;;;;5.25;2.35;;;9.90;58.40;;;;;;4880136;29;20143;-81
2022/04/25 05:06:24;;;;;;;3.83;2.13;;;9.90;58.50;;;;;;4889486;29;20039;-81
2022/04/25 05:08:50;;;;;;;3.63;2.28;;;10.00;59.10;;;;;;4884433;29;20051;-80
2022/04/25 05:11:15;;;;;;;3.40;2.20;;;10.00;58.70;;;;;;4903891;29;20041;-83
2022/04/25 05:13:41;;;;;;;4.03;2.33;;;10.00;59.00;;;;;;4895026;29;20648;-80
2022/04/25 05:16:07;;;;;;;4.82;2.47;;;10.10;59.20;;;;;;4927809;29;20534;-81
2022/04/25 05:18:33;;;;;;;4.27;2.60;;;10.10;59.30;;;;;;4889710;29;20042;-80
2022/04/25 05:21:02;;;;;;;4.13;2.40;;;10.30;59.70;;;;;;4870911;29;20570;-81
2022/04/25 05:23:28;;;;;;;3.60;2.33;;;10.40;59.80;;;;;;4925368;28;20036;-81
2022/04/25 05:25:55;;;;;;;4.78;2.70;;;10.40;59.80;;;;;;4898587;29;20040;-82
2022/04/25 05:28:25;;;;;;;3.57;2.43;;;10.60;59.90;;;;;;4905439;29;20537;-81
2022/04/25 05:30:51;;;;;;;4.75;2.30;;;10.70;60.10;;;;;;4894797;29;20322;-81
2022/04/25 05:33:18;;;;;;;4.00;2.30;;;10.80;60.10;;;;;;4905637;29;20265;-81
2022/04/25 05:35:44;;;;;;;4.78;2.50;;;10.90;60.20;;;;;;4881917;29;20123;-81
2022/04/25 05:38:11;;;;;;;3.38;2.30;;;11.00;60.30;;;;;;4891670;29;20028;-82
2022/04/25 05:40:37;;;;;;;4.03;2.23;;;11.10;60.20;;;;;;4888924;29;20044;-82
2022/04/25 05:43:05;;;;;;;4.78;2.70;;;11.20;60.20;;;;;;4898922;29;20056;-82
2022/04/25 05:45:31;;;;;;;4.78;2.70;;;11.30;60.30;;;;;;4892592;29;20473;-82
2022/04/25 05:47:57;;;;;;;3.40;2.28;;;11.40;60.20;;;;;;4897984;29;20032;-80
2022/04/25 05:53:12;;;;;;;4.43;2.57;;;11.70;60.70;;;;;;4882455;29;20032;-81
2022/04/25 05:55:39;;;;;;;3.90;2.42;;;11.70;60.00;;;;;;4888737;29;20088;-82
2022/04/25 05:58:06;;;;;;;5.18;2.65;;;11.80;60.00;;;;;;4918970;29;20033;-80
2022/04/25 06:00:33;;;;;;;5.32;2.55;;;11.90;60.10;;;;;;4896313;29;20394;-82
2022/04/25 06:03:00;;;;;;;4.53;2.67;;;12.00;60.20;;;;;;4892519;29;20043;-82
2022/04/25 06:05:27;;;;;;;5.10;2.70;;;12.10;60.20;;;;;;4899494;29;20132;-82
2022/04/25 06:07:53;;;;;;;3.95;2.50;;;12.10;60.40;;;;;;4875092;29;20386;-81
2022/04/25 06:10:28;;;;;;;5.40;2.80;;;12.30;60.80;;;;;;4898855;29;20040;-80
2022/04/25 06:12:54;;;;;;;4.10;2.50;;;12.40;60.80;;;;;;4894328;29;20311;-81
2022/04/25 06:15:24;;;;;;;4.75;2.80;;;12.50;60.40;;;;;;4917259;29;20032;-81
2022/04/25 06:17:54;;;;;;;6.10;3.10;;;12.60;60.40;;;;;;4895766;29;20170;-81
2022/04/25 06:20:21;;;;;;;4.78;2.80;;;12.70;59.80;;;;;;4897048;29;20077;-80
2022/04/25 06:22:51;;;;;;;4.10;2.63;;;12.80;59.80;;;;;;4865994;29;21020;-81
2022/04/25 06:25:16;;;;;;;6.72;3.13;;;12.80;60.00;;;;;;4902525;29;20332;-81
2022/04/25 06:27:42;;;;;;;5.37;2.77;;;12.80;59.70;;;;;;4882796;29;20354;-82
2022/04/25 06:30:08;;;;;;;4.95;2.65;;;12.80;59.40;;;;;;4906857;29;20036;-81
2022/04/25 06:32:34;;;;;;;5.83;3.00;;;12.80;59.30;;;;;;4892956;29;20036;-79
2022/04/25 06:35:00;;;;;;;5.50;2.80;;;12.80;59.20;;;;;;4901636;29;20875;-81
2022/04/25 06:37:26;;;;;;;3.97;2.60;;;12.80;59.00;;;;;;4890641;29;20028;-80
2022/04/25 06:39:51;;;;;;;5.10;2.73;;;12.80;59.30;;;;;;4892091;29;20063;-81
2022/04/25 06:42:17;;;;;;;5.22;2.83;;;12.80;59.60;;;;;;4902462;29;20521;-80
2022/04/25 06:44:42;;;;;;;5.70;2.97;;;12.80;59.70;;;;;;4889470;29;20287;-82
2022/04/25 06:47:08;;;;;;;5.85;3.03;;;12.80;59.70;;;;;;4902823;29;20400;-81
2022/04/25 06:49:34;;;;;;;4.87;2.93;;;12.80;59.70;;;;;;4872109;29;20101;-81
2022/04/25 06:52:01;;;;;;;4.88;2.90;;;12.90;60.20;;;;;;4893070;29;20024;-81
2022/04/25 06:54:28;;;;;;;5.53;2.80;;;13.00;60.70;;;;;;4872964;29;20040;-82
2022/04/25 06:56:55;;;;;;;5.37;2.83;;;13.10;60.60;;;;;;4911596;29;20063;-82
2022/04/25 06:59:22;;;;;;;6.85;3.50;;;13.20;60.90;;;;;;4883459;29;20353;-82
2022/04/25 07:01:49;;;;;;;4.65;3.20;;;13.30;61.10;;;;;;4899821;29;20143;-81
2022/04/25 07:04:16;;;;;;;7.18;3.17;;;13.60;61.00;;;;;;4885989;29;20140;-83
2022/04/25 07:06:43;;;;;;;5.78;3.22;;;13.70;61.00;;;;;;4893246;29;20032;-81
2022/04/25 07:09:13;;;;;;;5.67;3.10;;;13.90;61.20;;;;;;4881648;29;20641;-81
2022/04/25 07:11:43;;;;;;;5.90;3.05;;;14.00;61.30;;;;;;4903740;29;20040;-81
2022/04/25 07:14:11;;;;;;;8.00;4.18;;;14.40;61.80;;;;;;4908079;29;20056;-82
2022/04/25 07:16:36;;;;;;;5.88;3.70;;;14.60;61.50;;;;;;4905027;29;20143;-82
2022/04/25 07:19:02;;;;;;;5.60;3.40;;;14.90;60.90;;;;;;4907382;29;20047;-81
2022/04/25 07:29:47;;;;;;;6.28;3.90;;;15.50;59.10;;;;;;4885206;29;20230;-81
2022/04/25 07:32:17;;;;;;;7.53;3.95;;;15.60;58.70;;;;;;4908476;29;20184;-81
2022/04/25 07:34:43;;;;;;;6.53;3.78;;;15.70;58.50;;;;;;4904246;29;20202;-81
2022/04/25 07:37:10;;;;;;;7.30;4.83;;;15.70;58.50;;;;;;4895567;29;20040;-81
2022/04/25 07:39:35;;;;;;;7.38;4.57;;;15.80;58.60;;;;;;4879149;29;20040;-81
2022/04/25 07:42:01;;;;;;;8.15;4.50;;;15.90;58.30;;;;;;4905148;29;20406;-82
2022/04/25 07:44:27;;;;;;;8.37;5.03;;;15.80;57.80;;;;;;4896573;29;20701;-81
2022/04/25 07:46:53;;;;;;;7.80;4.20;;;15.80;57.50;;;;;;4904754;29;20242;-81
2022/04/25 07:49:19;;;;;;;7.70;4.18;;;15.80;57.30;;;;;;4884761;29;20051;-82
2022/04/25 07:51:45;;;;;;;6.60;4.07;;;15.70;57.30;;;;;;4893739;29;20506;-81
2022/04/25 07:54:11;;;;;;;5.93;3.95;;;15.70;57.50;;;;;;4914881;29;20582;-81
2022/04/25 07:56:38;;;;;;;5.80;3.83;;;15.70;57.70;;;;;;4871800;29;20485;-81
2022/04/25 07:59:05;;;;;;;6.78;4.22;;;15.80;57.90;;;;;;4887858;29;20051;-81
2022/04/25 08:01:32;;;;;;;7.17;4.17;;;15.80;58.00;;;;;;4919430;29;20055;-81
2022/04/25 08:03:58;;;;;;;7.63;4.65;;;15.80;57.80;;;;;;4886982;29;20052;-81
2022/04/25 08:06:23;;;;;;;7.22;4.15;;;15.90;58.50;;;;;;4905411;29;20040;-82
2022/04/25 08:08:50;;;;;;;7.63;4.23;;;15.90;57.70;;;;;;4888645;29;20246;-81
2022/04/25 08:11:16;;;;;;;7.82;4.22;;;16.00;57.80;;;;;;4883995;29;20033;-82
2022/04/25 08:19:13;;;;;;;7.78;3.80;;;16.10;57.40;;;;;;4888062;29;20478;-81
2022/04/25 08:21:39;;;;;;;7.40;4.20;;;16.10;57.40;;;;;;4879155;29;20311;-80
2022/04/25 08:24:05;;;;;;;7.70;4.05;;;16.10;57.30;;;;;;4897428;29;20481;-81
2022/04/25 08:26:31;;;;;;;6.88;3.97;;;16.10;57.40;;;;;;4876959;29;20051;-81
2022/04/25 08:28:56;;;;;;;6.47;4.33;;;16.20;57.40;;;;;;4906723;29;20035;-81
2022/04/25 08:31:22;;;;;;;6.50;4.30;;;16.30;57.40;;;;;;4905334;29;20036;-81
2022/04/25 08:33:48;;;;;;;7.05;4.13;;;16.30;57.50;;;;;;4902856;29;20249;-81
2022/04/25 08:36:16;;;;;;;7.10;4.47;;;16.40;57.50;;;;;;4889597;29;20032;-81
2022/04/25 08:38:43;;;;;;;6.93;4.45;;;16.50;57.40;;;;;;4881777;29;20032;-81
2022/04/25 08:41:14;;;;;;;6.53;4.37;;;16.60;57.30;;;;;;4906781;29;20040;-81
2022/04/25 08:43:41;;;;;;;8.27;4.32;;;16.70;57.30;;;;;;4864799;29;20763;-82
2022/04/25 08:46:10;;;;;;;6.78;4.45;;;16.80;57.40;;;;;;4906971;29;20127;-81
2022/04/25 08:48:37;;;;;;;6.90;4.18;;;16.90;57.40;;;;;;4884567;29;20492;-81
2022/04/25 08:51:04;;;;;;;7.78;4.55;;;17.10;57.00;;;;;;4888272;29;20144;-82
2022/04/25 08:53:32;;;;;;;6.50;4.47;;;17.10;56.70;;;;;;4915153;29;20409;-81
2022/04/25 08:56:03;;;;;;;7.00;4.30;;;17.20;56.50;;;;;;4896752;29;20043;-81
2022/04/25 08:58:31;;;;;;;7.35;4.30;;;17.30;56.40;;;;;;4878648;29;20067;-81
2022/04/25 09:00:59;;;;;;;7.40;4.50;;;17.30;56.10;;;;;;4916253;29;20062;-81
2022/04/25 09:03:25;;;;;;;6.57;4.45;;;17.40;55.90;;;;;;4899153;29;20044;-81
2022/04/25 09:05:51;;;;;;;6.53;4.40;;;17.40;55.60;;;;;;4898583;29;20310;-81
2022/04/25 09:08:17;;;;;;;7.70;3.97;;;17.40;55.60;;;;;;4893789;29;20043;-81
2022/04/25 09:10:44;;;;;;;6.13;3.97;;;17.40;55.70;;;;;;4890480;29;20148;-80
2022/04/25 09:13:11;;;;;;;6.70;4.33;;;17.50;55.80;;;;;;4918418;29;20126;-81
2022/04/25 09:15:37;;;;;;;5.93;4.05;;;17.50;56.00;;;;;;4877587;29;20516;-80
2022/04/25 09:18:03;;;;;;;6.05;4.13;;;17.60;55.80;;;;;;4898194;29;20485;-81
2022/04/25 09:20:29;;;;;;;5.78;3.90;;;17.70;55.60;;;;;;4895096;29;20149;-81
2022/04/25 09:22:56;;;;;;;6.10;3.95;;;17.80;55.50;;;;;;4888207;29;20128;-81
2022/04/25 09:25:22;;;;;;;6.77;4.03;;;17.90;55.50;;;;;;4897083;29;20051;-82
2022/04/25 09:28:05;;;;;;;6.10;4.00;;;18.00;55.30;;;;;;4927040;29;20235;-81
2022/04/25 09:30:31;;;;;;;5.28;3.70;;;18.00;54.90;;;;;;4881152;29;20095;-81
2022/04/25 09:32:57;;;;;;;5.87;3.57;;;18.20;56.40;;;;;;4893261;29;20103;-81
2022/04/25 09:35:43;;;;;;;4.95;3.60;;;18.60;58.10;;;;;;4904581;29;20099;-81
2022/04/25 09:38:09;;;;;;;5.00;3.58;;;19.00;57.70;;;;;;4893924;29;20033;-81
2022/04/25 09:40:39;;;;;;;6.60;3.75;;;19.50;57.40;;;;;;4908954;29;20054;-81
2022/04/25 09:43:08;;;;;;;4.78;3.50;;;19.80;54.90;;;;;;4896858;29;20078;-81
2022/04/25 09:45:38;;;;;;;5.57;3.63;;;20.00;54.00;;;;;;4874393;29;20262;-80
2022/04/25 09:48:15;;;;;;;5.07;3.45;;;20.20;54.60;;;;;;4906740;29;20032;-81
2022/04/25 09:50:42;;;;;;;5.15;3.40;;;20.40;53.60;;;;;;4882381;29;20274;-80
2022/04/25 09:53:10;;;;;;;4.70;3.47;;;20.60;54.70;;;;;;4892536;29;20052;-81
2022/04/25 09:55:38;;;;;;;4.78;3.58;;;20.90;55.30;;;;;;4902656;29;20104;-81
2022/04/25 09:58:18;;;;;;;4.80;3.47;;;21.40;56.00;;;;;;4896794;29;20091;-81
2022/04/25 10:00:44;;;;;;;4.63;3.72;;;22.00;54.10;;;;;;4869290;29;20250;-81
2022/04/25 10:03:10;;;;;;;5.07;3.53;;;22.60;56.20;;;;;;4890986;29;20042;-81
2022/04/25 10:05:46;;;;;;;5.05;3.33;;;23.10;55.40;;;;;;4882637;29;20032;-81
2022/04/25 10:08:15;;;;;;;4.67;3.27;;;23.70;53.00;;;;;;4887108;29;20044;-81
2022/04/25 10:10:53;;;;;;;3.95;2.70;;;24.20;52.80;;;;;;4901283;29;20157;-81
2022/04/25 10:13:19;;;;;;;4.28;3.05;;;24.70;50.60;;;;;;4895884;29;20047;-81
2022/04/25 10:15:45;;;;;;;4.30;2.53;;;25.10;51.70;;;;;;4877195;29;20317;-82
2022/04/25 10:18:12;;;;;;;3.08;2.65;;;25.60;51.00;;;;;;4906364;29;20039;-81
2022/04/25 10:20:40;;;;;;;3.80;2.80;;;26.00;50.00;;;;;;4902073;29;20044;-81
2022/04/25 10:23:09;;;;;;;3.50;2.65;;;26.40;49.10;;;;;;4901969;29;20097;-82
2022/04/25 10:25:36;;;;;;;3.83;3.08;;;26.70;47.10;;;;;;4907296;29;20094;-82
2022/04/25 10:28:06;;;;;;;3.55;2.97;;;26.80;45.30;;;;;;4909216;29;20087;-82
2022/04/25 10:30:36;;;;;;;2.80;2.50;;;26.80;45.40;;;;;;4895144;29;20337;-82
2022/04/25 10:33:20;;;;;;;3.17;2.60;;;26.90;44.90;;;;;;4882312;29;20048;-82
2022/04/25 10:35:49;;;;;;;3.88;2.90;;;27.00;42.50;;;;;;4894095;29;20024;-81
2022/04/25 10:38:47;;;;;;;4.13;3.17;;;26.80;42.10;;;;;;4901229;29;20040;-82
2022/04/25 10:44:47;;;;;;;4.00;3.60;;;26.30;40.80;;;;;;4891865;29;20045;-82
2022/04/25 10:47:18;;;;;;;5.87;4.20;;;25.90;40.70;;;;;;4892161;29;20127;-83
2022/04/25 10:49:53;;;;;;;5.70;4.75;;;25.60;41.00;;;;;;4886257;29;20052;-81
2022/04/25 10:52:34;;;;;;;6.10;4.72;;;25.40;41.40;;;;;;4898916;29;20068;-81
2022/04/25 10:55:33;;;;;;;6.05;4.95;;;25.40;42.20;;;;;;4891838;29;20256;-81
2022/04/25 10:58:01;;;;;;;6.57;5.50;;;25.60;42.20;;;;;;4894392;29;20247;-83
2022/04/25 11:00:36;;;;;;;6.73;5.13;;;25.80;43.30;;;;;;4898809;29;20068;-82
2022/04/25 11:03:07;;;;;;;5.97;4.90;;;26.00;41.80;;;;;;4873134;29;20372;-83
2022/04/25 11:05:44;;;;;;;6.07;4.85;;;26.10;43.20;;;;;;4908722;29;20032;-82
2022/04/25 11:08:18;;;;;;;5.10;4.20;;;26.40;42.80;;;;;;4907767;29;20138;-81
2022/04/25 11:10:54;;;;;;;5.97;4.57;;;26.60;42.00;;;;;;4884801;29;20063;-81
2022/04/25 11:13:20;;;;;;;6.17;4.77;;;26.60;41.00;;;;;;4901247;29;20037;-82
2022/04/25 11:15:46;;;;;;;6.25;5.18;;;26.50;40.10;;;;;;4904444;29;20036;-82
2022/04/25 11:18:42;;;;;;;6.38;5.03;;;26.30;39.80;;;;;;4886902;29;20036;-82
2022/04/25 11:21:13;;;;;;;7.07;5.70;;;26.20;40.30;;;;;;4885308;29;20398;-82
2022/04/25 11:23:44;;;;;;;6.57;5.65;;;26.10;40.30;;;;;;4896545;29;20171;-81
2022/04/25 11:26:33;;;;;;;7.30;5.70;;;26.10;40.50;;;;;;4903688;29;20049;-82
2022/04/25 11:29:09;;;;;;;8.13;5.72;;;26.20;41.10;;;;;;4884767;29;20064;-81
2022/04/25 11:31:37;;;;;;;6.80;5.80;;;26.30;40.90;;;;;;4890045;29;20038;-83
2022/04/25 11:34:11;;;;;;;7.43;5.35;;;26.30;41.40;;;;;;4886090;29;20490;-82
2022/04/25 11:36:41;;;;;;;6.10;5.47;;;26.40;42.20;;;;;;4897567;29;20477;-81
2022/04/25 11:41:51;;;;;;;5.53;4.70;;;26.80;42.00;;;;;;4896031;29;20473;-82
2022/04/25 11:44:17;;;;;;;5.32;4.80;;;27.10;41.60;;;;;;4904404;29;20087;-81
2022/04/25 11:46:43;;;;;;;6.00;4.93;;;27.30;41.40;;;;;;4903542;29;20123;-81
2022/04/25 11:49:09;;;;;;;6.07;4.30;;;27.50;41.00;;;;;;4879185;29;20059;-81
2022/04/25 11:51:39;;;;;;;5.00;4.43;;;27.70;41.00;;;;;;4904181;29;20070;-81
2022/04/25 11:54:07;;;;;;;4.97;3.92;;;27.90;39.40;;;;;;4904219;29;20739;-83
2022/04/25 11:56:35;;;;;;;5.30;4.35;;;28.00;39.30;;;;;;4899213;29;20099;-82
2022/04/25 11:59:12;;;;;;;5.07;4.33;;;28.00;38.10;;;;;;4902654;29;20040;-82
2022/04/25 12:01:49;;;;;;;4.63;4.03;;;27.90;36.20;;;;;;4889172;29;20604;-81
2022/04/25 12:04:15;;;;;;;5.07;4.22;;;27.70;37.20;;;;;;4904923;29;20039;-82
2022/04/25 12:07:06;;;;;;;5.22;4.07;;;27.60;37.80;;;;;;4874115;29;20064;-82
2022/04/25 12:15:36;;;;;;;4.57;3.72;;;27.10;36.00;;;;;;4889154;29;20037;-81
2022/04/25 12:18:23;;;;;;;6.18;4.30;;;27.00;37.20;;;;;;4902952;29;20919;-82
2022/04/25 12:20:58;;;;;;;4.30;3.35;;;27.00;36.30;;;;;;4867302;29;20039;-81
2022/04/25 12:23:28;;;;;;;4.93;3.80;;;27.10;37.00;;;;;;4890179;29;20195;-82
2022/04/25 12:25:55;;;;;;;5.43;3.73;;;27.20;37.10;;;;;;4886885;29;20045;-81
2022/04/25 12:28:23;;;;;;;4.45;3.53;;;27.30;37.50;;;;;;4887614;29;20025;-81
2022/04/25 12:30:59;;;;;;;4.40;3.53;;;27.40;37.60;;;;;;4885157;29;20037;-81
2022/04/25 12:33:33;;;;;;;4.53;3.60;;;27.50;36.30;;;;;;4884271;29;20028;-81
2022/04/25 12:36:19;;;;;;;4.13;3.33;;;27.60;35.90;;;;;;4871379;29;20117;-81
2022/04/25 12:38:52;;;;;;;4.40;3.47;;;27.40;35.50;;;;;;4890592;29;20032;-81
2022/04/25 12:41:22;;;;;;;4.75;3.42;;;27.30;35.20;;;;;;4893244;29;20037;-82
2022/04/25 12:43:50;;;;;;;4.18;3.35;;;27.30;36.30;;;;;;4883767;29;20223;-81
2022/04/25 12:46:18;;;;;;;4.90;3.33;;;27.30;36.50;;;;;;4892044;29;20104;-82
2022/04/25 12:49:15;;;;;;;4.68;3.33;;;27.30;35.40;;;;;;4885896;29;20047;-80
2022/04/25 12:51:58;;;;;;;5.03;2.73;;;27.20;34.60;;;;;;4883366;29;20485;-82
2022/04/25 12:54:32;;;;;;;3.88;2.90;;;27.10;35.40;;;;;;4904355;29;20032;-82
2022/04/25 12:57:20;;;;;;;3.40;2.72;;;27.10;36.10;;;;;;4880002;29;20115;-82
2022/04/25 12:59:57;;;;;;;3.67;2.40;;;27.30;35.50;;;;;;4886074;29;20060;-81
2022/04/25 13:02:32;;;;;;;3.25;2.60;;;27.50;35.40;;;;;;4892343;29;20060;-81
2022/04/25 13:05:03;;;;;;;3.17;2.50;;;27.60;35.60;;;;;;4894083;29;20600;-82
2022/04/25 13:07:39;;;;;;;3.00;2.70;;;27.80;35.70;;;;;;4877210;29;20128;-82
2022/04/25 13:10:08;;;;;;;4.05;2.92;;;28.00;35.90;;;;;;4894876;29;20424;-82
2022/04/25 13:12:34;;;;;;;3.38;3.00;;;28.20;36.40;;;;;;4908983;29;20453;-81
2022/04/25 13:15:01;;;;;;;4.03;3.45;;;28.30;35.50;;;;;;4898504;29;20211;-81
2022/04/25 13:17:27;;;;;;;3.40;2.93;;;28.30;34.60;;;;;;4888607;29;20481;-81
2022/04/25 13:19:53;;;;;;;3.55;2.92;;;28.00;33.40;;;;;;4900748;29;20040;-81
2022/04/25 13:22:18;;;;;;;5.13;3.90;;;27.70;33.20;;;;;;4874085;29;20037;-81
2022/04/25 13:24:45;;;;;;;5.15;4.00;;;27.30;33.10;;;;;;4909315;29;20096;-81
2022/04/25 13:27:11;;;;;;;4.65;3.53;;;26.80;33.00;;;;;;4889253;29;20045;-82
2022/04/25 13:29:37;;;;;;;4.60;3.60;;;26.30;33.10;;;;;;4881721;29;20050;-80